createdAt,value
2018-02-14T00:01:18.128Z,8.90
2018-02-14T00:03:45.614Z,10.53
2018-02-14T00:06:13.118Z,10.53
2018-02-14T00:08:41.393Z,9.60
2018-02-14T00:11:08.892Z,12.83
2018-02-14T00:13:36.734Z,14.37
2018-02-14T00:16:04.231Z,12.27
2018-02-14T00:18:31.728Z,13.20
2018-02-14T00:20:59.272Z,11.97
2018-02-14T00:23:26.757Z,8.53
2018-02-14T00:25:55.349Z,11.83
2018-02-14T00:28:22.852Z,10.77
2018-02-14T00:30:50.339Z,11.33
2018-02-14T00:33:18.243Z,13.07
2018-02-14T00:35:45.750Z,11.43
2018-02-14T00:38:13.244Z,8.17
2018-02-14T00:40:41.543Z,9.43
2018-02-14T00:43:09.046Z,15.47
2018-02-14T00:45:36.853Z,10.77
2018-02-14T00:48:04.363Z,13.87
2018-02-14T00:50:31.867Z,8.03
2018-02-14T00:52:59.373Z,12.80
2018-02-14T00:55:26.857Z,9.33
2018-02-14T00:57:54.753Z,10.33
2018-02-14T01:00:22.307Z,8.50
2018-02-14T01:02:49.832Z,12.13
2018-02-14T01:05:17.357Z,10.83
2018-02-14T01:07:44.847Z,12.37
2018-02-14T01:10:12.852Z,9.10
2018-02-14T01:12:40.368Z,11.07
2018-02-14T01:15:07.870Z,14.50
2018-02-14T01:17:35.388Z,12.43
2018-02-14T01:20:09.359Z,8.00
2018-02-14T01:22:36.850Z,12.87
2018-02-14T01:25:04.356Z,9.00
2018-02-14T01:27:32.184Z,10.23
2018-02-14T01:29:59.706Z,8.40
2018-02-14T01:32:27.203Z,9.27
2018-02-14T01:34:54.713Z,9.43
2018-02-14T01:37:22.212Z,10.33
2018-02-14T01:39:50.210Z,11.93
2018-02-14T01:42:18.477Z,9.17
2018-02-14T01:44:46.001Z,13.90
2018-02-14T01:47:14.011Z,7.93
2018-02-14T01:49:41.502Z,7.67
2018-02-14T01:52:09.002Z,9.10
2018-02-14T01:54:36.520Z,10.63
2018-02-14T01:57:04.028Z,10.80
2018-02-14T01:59:31.857Z,12.00
2018-02-14T02:01:59.359Z,11.07
2018-02-14T02:04:26.864Z,9.00
2018-02-14T02:06:54.383Z,9.63
2018-02-14T02:09:22.663Z,11.93
2018-02-14T02:11:51.240Z,9.10
2018-02-14T02:14:18.736Z,12.57
2018-02-14T02:16:46.226Z,9.27
2018-02-14T02:19:13.725Z,9.10
2018-02-14T02:21:41.239Z,8.13
2018-02-14T02:24:09.139Z,9.63
2018-02-14T02:26:37.224Z,8.60
2018-02-14T02:29:04.740Z,10.67
2018-02-14T02:31:32.256Z,9.93
2018-02-14T02:33:59.786Z,8.40
2018-02-14T02:36:28.366Z,9.90
2018-02-14T02:38:55.863Z,9.80
2018-02-14T02:41:24.395Z,9.97
2018-02-14T02:43:52.687Z,10.70
2018-02-14T02:46:20.186Z,8.47
2018-02-14T02:48:48.121Z,8.13
2018-02-14T02:51:15.641Z,11.63
2018-02-14T02:53:43.135Z,11.30
2018-02-14T02:56:10.637Z,9.40
2018-02-14T02:58:38.138Z,8.97
2018-02-14T03:01:06.021Z,10.43
2018-02-14T03:03:33.559Z,12.67
2018-02-14T03:06:01.818Z,9.00
2018-02-14T03:08:29.812Z,10.40
2018-02-14T03:10:57.294Z,9.57
2018-02-14T03:13:24.783Z,12.37
2018-02-14T03:15:52.786Z,10.77
2018-02-14T03:18:20.307Z,9.27
2018-02-14T03:20:47.815Z,8.60
2018-02-14T03:23:15.344Z,11.10
2018-02-14T03:25:42.849Z,9.50
2018-02-14T03:28:10.356Z,10.60
2018-02-14T03:30:37.888Z,9.63
2018-02-14T03:33:05.424Z,11.17
2018-02-14T03:35:33.272Z,10.30
2018-02-14T03:38:00.774Z,11.00
2018-02-14T03:40:28.267Z,12.73
2018-02-14T03:42:56.549Z,11.20
2018-02-14T03:45:24.803Z,9.80
2018-02-14T03:47:52.789Z,9.50
2018-02-14T03:50:20.292Z,11.30
2018-02-14T03:52:47.781Z,9.00
2018-02-14T03:55:15.778Z,14.47
2018-02-14T03:57:43.278Z,10.37
2018-02-14T04:00:10.889Z,13.03
2018-02-14T04:02:38.457Z,12.00
2018-02-14T04:05:06.729Z,9.23
2018-02-14T04:07:35.313Z,9.67
2018-02-14T04:10:02.808Z,11.20
2018-02-14T04:12:30.302Z,10.93
2018-02-14T04:14:57.838Z,10.07
2018-02-14T04:17:25.334Z,11.30
2018-02-14T04:19:53.150Z,12.40
2018-02-14T04:22:20.672Z,11.97
2018-02-14T04:24:48.932Z,10.93
2018-02-14T04:27:16.720Z,9.93
2018-02-14T04:29:44.210Z,11.33
2018-02-14T04:32:11.709Z,13.57
2018-02-14T04:34:39.486Z,10.23
2018-02-14T04:37:07.009Z,9.33
2018-02-14T04:39:34.509Z,11.27
2018-02-14T04:42:02.788Z,10.90
2018-02-14T04:44:30.292Z,11.13
2018-02-14T04:46:58.072Z,10.60
2018-02-14T04:49:25.578Z,14.70
2018-02-14T04:51:53.065Z,9.43
2018-02-14T04:54:20.580Z,11.43
2018-02-14T04:56:48.094Z,11.17
2018-02-14T04:59:15.895Z,12.53
2018-02-14T05:01:44.162Z,11.17
2018-02-14T05:04:11.665Z,13.07
2018-02-14T05:06:39.702Z,11.47
2018-02-14T05:09:07.203Z,12.73
2018-02-14T05:11:34.712Z,14.43
2018-02-14T05:14:03.310Z,11.23
2018-02-14T05:16:30.843Z,12.67
2018-02-14T05:18:58.341Z,12.77
2018-02-14T05:21:25.857Z,18.77
2018-02-14T05:23:53.367Z,15.10
2018-02-14T05:26:20.880Z,13.13
2018-02-14T05:28:49.485Z,16.80
2018-02-14T05:31:17.083Z,14.77
2018-02-14T05:33:44.587Z,11.20
2018-02-14T05:36:12.473Z,14.50
2018-02-14T05:38:39.967Z,16.30
2018-02-14T05:41:07.480Z,17.60
2018-02-14T05:43:35.299Z,17.33
2018-02-14T05:46:02.798Z,13.57
2018-02-14T05:48:30.298Z,12.17
2018-02-14T05:50:58.094Z,15.10
2018-02-14T05:53:25.587Z,14.57
2018-02-14T05:55:53.099Z,18.97
2018-02-14T05:58:20.628Z,14.23
2018-02-14T06:00:48.123Z,15.17
2018-02-14T06:03:15.614Z,13.03
2018-02-14T06:05:43.574Z,13.10
2018-02-14T06:08:11.099Z,13.33
2018-02-14T06:10:38.621Z,15.87
2018-02-14T06:13:06.482Z,11.93
2018-02-14T06:15:33.996Z,15.10
2018-02-14T06:18:01.506Z,15.70
2018-02-14T06:20:29.342Z,15.93
2018-02-14T06:22:56.851Z,13.90
2018-02-14T06:25:24.395Z,15.83
2018-02-14T06:27:52.215Z,14.27
2018-02-14T06:30:19.735Z,13.73
2018-02-14T06:32:47.243Z,15.43
2018-02-14T06:35:15.031Z,13.80
2018-02-14T06:37:42.639Z,12.80
2018-02-14T06:40:10.131Z,15.03
2018-02-14T06:42:37.972Z,14.63
2018-02-14T06:45:06.248Z,12.13
2018-02-14T06:47:34.514Z,10.97
2018-02-14T06:50:02.508Z,13.30
2018-02-14T06:52:30.016Z,12.97
2018-02-14T06:54:57.584Z,13.80
2018-02-14T06:57:25.483Z,12.63
2018-02-14T06:59:53.039Z,15.40
2018-02-14T07:02:21.358Z,12.37
2018-02-14T07:04:49.151Z,14.20
2018-02-14T07:07:16.663Z,12.97
2018-02-14T07:09:44.171Z,11.93
2018-02-14T07:12:11.914Z,11.17
2018-02-14T07:14:39.420Z,13.47
2018-02-14T07:17:07.687Z,10.53
2018-02-14T07:19:36.262Z,11.93
2018-02-14T07:22:03.758Z,13.17
2018-02-14T07:24:31.272Z,17.33
2018-02-14T07:26:59.095Z,12.23
2018-02-14T07:29:26.596Z,15.47
2018-02-14T07:31:54.103Z,10.73
2018-02-14T07:34:21.933Z,11.40
2018-02-14T07:36:50.205Z,13.77
2018-02-14T07:39:18.474Z,11.43
2018-02-14T07:41:46.464Z,12.23
2018-02-14T07:44:14.742Z,12.13
2018-02-14T07:46:43.001Z,10.00
2018-02-14T07:49:10.826Z,20.10
2018-02-14T07:51:38.366Z,17.73
2018-02-14T07:54:05.889Z,11.63
2018-02-14T07:56:34.513Z,11.57
2018-02-14T07:59:02.024Z,15.50
2018-02-14T08:01:30.298Z,11.13
2018-02-14T08:03:57.833Z,12.13
2018-02-14T08:06:25.335Z,13.83
2018-02-14T08:08:52.856Z,11.60
2018-02-14T08:11:20.760Z,10.73
2018-02-14T08:13:48.276Z,10.97
2018-02-14T08:16:15.776Z,16.10
2018-02-14T08:18:43.797Z,11.90
2018-02-14T08:21:11.308Z,8.03
2018-02-14T08:23:38.807Z,11.03
2018-02-14T08:26:06.649Z,9.23
2018-02-14T08:28:34.896Z,11.43
2018-02-14T08:31:02.407Z,10.70
2018-02-14T08:33:30.979Z,11.90
2018-02-14T08:35:58.504Z,9.30
2018-02-14T08:38:26.018Z,12.83
2018-02-14T08:40:53.839Z,11.73
2018-02-14T08:43:21.402Z,13.80
2018-02-14T08:45:48.890Z,11.70
2018-02-14T08:48:16.705Z,11.57
2018-02-14T08:50:44.207Z,12.07
2018-02-14T08:53:11.689Z,11.90
2018-02-14T08:55:39.640Z,11.27
2018-02-14T08:58:07.189Z,10.33
2018-02-14T09:00:34.795Z,12.87
2018-02-14T09:03:02.610Z,10.77
2018-02-14T09:05:30.226Z,11.13
2018-02-14T09:07:57.787Z,12.20
2018-02-14T09:10:25.727Z,11.57
2018-02-14T09:12:53.274Z,11.10
2018-02-14T09:15:20.826Z,11.77
2018-02-14T09:17:48.683Z,12.20
2018-02-14T09:20:16.227Z,11.13
2018-02-14T09:22:43.789Z,12.50
2018-02-14T09:25:11.681Z,11.73
2018-02-14T09:27:39.248Z,10.60
2018-02-14T09:30:06.807Z,12.37
2018-02-14T09:32:34.612Z,9.90
2018-02-14T09:35:02.116Z,9.90
2018-02-14T09:37:29.631Z,11.13
2018-02-14T09:39:57.612Z,33.40
2018-02-14T09:42:25.119Z,12.00
2018-02-14T09:44:53.411Z,12.77
2018-02-14T09:47:21.948Z,10.97
2018-02-14T09:49:49.441Z,12.23
2018-02-14T09:52:16.939Z,11.90
2018-02-14T09:54:44.792Z,13.33
2018-02-14T09:57:12.293Z,11.60
2018-02-14T09:59:39.806Z,13.47
2018-02-14T10:02:08.413Z,8.33
2018-02-14T10:04:35.914Z,11.70
2018-02-14T10:07:03.414Z,12.93
2018-02-14T10:09:31.397Z,15.77
2018-02-14T10:11:58.916Z,13.43
2018-02-14T10:14:27.170Z,11.27
2018-02-14T10:16:54.984Z,11.87
2018-02-14T10:19:22.485Z,11.37
2018-02-14T10:21:49.973Z,11.00
2018-02-14T10:24:17.796Z,13.43
2018-02-14T10:26:45.298Z,12.87
2018-02-14T10:29:13.575Z,11.80
2018-02-14T10:31:41.388Z,10.70
2018-02-14T10:34:08.939Z,11.63
2018-02-14T10:36:36.452Z,9.23
2018-02-14T10:39:05.087Z,10.00
2018-02-14T10:41:32.613Z,10.37
2018-02-14T10:44:00.898Z,8.60
2018-02-14T10:46:28.453Z,10.07
2018-02-14T10:48:56.756Z,12.00
2018-02-14T10:51:24.278Z,11.03
2018-02-14T10:53:52.103Z,11.27
2018-02-14T10:56:19.684Z,9.20
2018-02-14T10:58:47.214Z,9.80
2018-02-14T11:01:21.446Z,8.53
2018-02-14T11:03:51.740Z,13.50
2018-02-14T11:06:19.263Z,11.27
2018-02-14T11:08:47.055Z,9.47
2018-02-14T11:11:14.576Z,8.17
2018-02-14T11:13:42.103Z,11.50
2018-02-14T11:16:10.768Z,8.90
2018-02-14T11:18:38.404Z,10.03
2018-02-14T11:21:05.935Z,11.03
2018-02-14T11:23:34.486Z,11.27
2018-02-14T11:26:02.047Z,8.90
2018-02-14T11:28:29.578Z,9.90
2018-02-14T11:30:57.430Z,8.40
2018-02-14T11:33:24.968Z,8.50
2018-02-14T11:35:52.496Z,9.80
2018-02-14T11:38:20.318Z,9.03
2018-02-14T11:40:47.853Z,9.60
2018-02-14T11:43:15.414Z,8.07
2018-02-14T11:45:43.180Z,7.17
2018-02-14T11:48:10.713Z,7.70
2018-02-14T11:50:39.012Z,11.33
2018-02-14T11:53:06.808Z,9.40
2018-02-14T11:55:34.366Z,7.57
2018-02-14T11:58:01.860Z,7.30
2018-02-14T12:00:29.733Z,7.80
2018-02-14T12:02:58.057Z,9.23
2018-02-14T12:05:25.581Z,9.07
2018-02-14T12:07:53.484Z,9.37
2018-02-14T12:10:20.997Z,9.30
2018-02-14T12:12:49.341Z,9.03
2018-02-14T12:15:17.138Z,10.43
2018-02-14T12:17:45.415Z,7.03
2018-02-14T12:20:12.936Z,8.97
2018-02-14T12:22:40.750Z,7.53
2018-02-14T12:25:08.359Z,8.93
2018-02-14T12:27:36.639Z,7.73
2018-02-14T12:30:04.474Z,6.93
2018-02-14T12:32:32.007Z,6.70
2018-02-14T12:35:00.285Z,9.90
2018-02-14T12:37:28.072Z,8.13
2018-02-14T12:39:55.572Z,8.03
2018-02-14T12:42:23.105Z,6.40
2018-02-14T12:44:50.931Z,6.30
2018-02-14T12:47:19.182Z,6.93
2018-02-14T12:49:46.691Z,8.00
2018-02-14T12:52:14.620Z,7.00
2018-02-14T12:54:42.886Z,7.13
2018-02-14T12:57:10.388Z,9.87
2018-02-14T12:59:38.234Z,6.37
2018-02-14T13:02:05.721Z,6.50
2018-02-14T13:04:33.251Z,5.97
2018-02-14T13:07:01.230Z,6.37
2018-02-14T13:09:28.735Z,5.80
2018-02-14T13:11:56.240Z,6.10
2018-02-14T13:14:24.014Z,7.10
2018-02-14T13:16:51.516Z,8.20
2018-02-14T13:19:19.006Z,9.93
2018-02-14T13:21:47.596Z,7.20
2018-02-14T13:24:15.115Z,7.90
2018-02-14T13:26:42.609Z,6.57
2018-02-14T13:29:10.577Z,6.60
2018-02-14T13:31:38.864Z,8.97
2018-02-14T13:34:06.369Z,6.67
2018-02-14T13:36:35.086Z,6.47
2018-02-14T13:39:03.356Z,6.37
2018-02-14T13:41:31.669Z,6.43
2018-02-14T13:44:00.431Z,5.80
2018-02-14T13:46:29.095Z,6.10
2018-02-14T13:48:56.599Z,6.60
2018-02-14T13:51:24.452Z,6.17
2018-02-14T13:53:51.970Z,6.63
2018-02-14T13:56:19.468Z,6.33
2018-02-14T13:58:48.140Z,7.10
2018-02-14T14:01:16.411Z,6.87
2018-02-14T14:03:43.912Z,7.93
2018-02-14T14:06:11.766Z,6.00
2018-02-14T14:08:39.279Z,5.67
2018-02-14T14:11:06.768Z,6.10
2018-02-14T14:13:34.706Z,6.70
2018-02-14T14:16:02.211Z,6.00
2018-02-14T14:18:29.700Z,5.40
2018-02-14T14:20:57.635Z,5.90
2018-02-14T14:23:25.309Z,5.60
2018-02-14T14:25:52.806Z,5.37
2018-02-14T14:28:20.802Z,8.33
2018-02-14T14:30:48.292Z,5.47
2018-02-14T14:33:15.792Z,5.73
2018-02-14T14:35:43.627Z,6.40
2018-02-14T14:38:11.123Z,5.57
2018-02-14T14:40:38.627Z,5.20
2018-02-14T14:43:06.418Z,6.50
2018-02-14T14:45:34.695Z,6.33
2018-02-14T14:48:02.191Z,5.10
2018-02-14T14:50:30.402Z,7.03
2018-02-14T14:52:57.913Z,5.47
2018-02-14T14:55:26.188Z,5.37
2018-02-14T14:57:54.797Z,5.53
2018-02-14T15:00:22.388Z,5.87
2018-02-14T15:02:51.619Z,5.23
2018-02-14T15:05:19.625Z,5.97
2018-02-14T15:07:47.183Z,5.97
2018-02-14T15:10:14.683Z,6.67
2018-02-14T15:12:42.487Z,8.83
2018-02-14T15:15:10.043Z,6.13
2018-02-14T15:17:37.572Z,10.50
2018-02-14T15:20:05.386Z,6.03
2018-02-14T15:22:32.869Z,6.53
2018-02-14T15:25:00.363Z,5.80
2018-02-14T15:27:28.248Z,6.53
2018-02-14T15:29:56.510Z,6.20
2018-02-14T15:32:24.082Z,7.87
2018-02-14T15:34:51.959Z,6.97
2018-02-14T15:37:20.410Z,6.07
2018-02-14T15:39:47.881Z,10.03
2018-02-14T15:42:16.578Z,6.10
2018-02-14T15:44:44.069Z,5.73
2018-02-14T15:47:11.576Z,6.47
2018-02-14T15:49:40.155Z,6.40
2018-02-14T15:52:07.768Z,6.07
2018-02-14T15:54:36.703Z,6.70
2018-02-14T15:57:04.699Z,7.23
2018-02-14T15:59:32.186Z,6.37
2018-02-14T16:01:59.688Z,6.60
2018-02-14T16:04:27.508Z,7.40
2018-02-14T16:06:55.068Z,6.37
2018-02-14T16:09:22.563Z,6.20
2018-02-14T16:11:50.488Z,6.50
2018-02-14T16:14:17.982Z,6.87
2018-02-14T16:16:45.505Z,8.03
2018-02-14T16:19:13.545Z,6.37
2018-02-14T16:21:41.032Z,9.60
2018-02-14T16:24:08.558Z,7.80
2018-02-14T16:26:37.221Z,9.50
2018-02-14T16:29:04.715Z,7.70
2018-02-14T16:31:32.228Z,7.30
2018-02-14T16:33:59.990Z,8.20
2018-02-14T16:36:27.512Z,8.27
2018-02-14T16:38:55.005Z,8.30
2018-02-14T16:41:22.808Z,8.07
2018-02-14T16:43:50.315Z,7.83
2018-02-14T16:46:17.846Z,9.50
2018-02-14T16:48:45.802Z,8.15
2018-02-14T16:51:13.324Z,7.60
2018-02-14T16:53:40.816Z,6.80
2018-02-14T16:56:08.652Z,7.87
2018-02-14T16:58:36.272Z,8.60
2018-02-14T17:01:05.417Z,8.90
2018-02-14T17:03:33.206Z,7.83
2018-02-14T17:06:00.742Z,7.83
2018-02-14T17:08:28.239Z,7.37
2018-02-14T17:10:56.069Z,9.53
2018-02-14T17:13:23.567Z,8.50
2018-02-14T17:15:51.096Z,9.33
2018-02-14T17:18:18.958Z,11.00
2018-02-14T17:20:46.494Z,7.10
2018-02-14T17:23:14.809Z,8.07
2018-02-14T17:25:42.303Z,8.77
2018-02-14T17:28:09.825Z,11.33
2018-02-14T17:30:37.765Z,8.53
2018-02-14T17:33:05.293Z,9.23
2018-02-14T17:35:33.908Z,9.40
2018-02-14T17:38:01.493Z,9.83
2018-02-14T17:40:28.999Z,10.23
2018-02-14T17:42:56.899Z,10.23
2018-02-14T17:45:25.174Z,9.87
2018-02-14T17:47:52.686Z,10.63
2018-02-14T17:50:20.529Z,10.47
2018-02-14T17:52:48.030Z,7.53
2018-02-14T17:55:15.542Z,10.27
2018-02-14T17:57:43.508Z,11.50
2018-02-14T18:00:11.395Z,12.93
2018-02-14T18:02:39.030Z,9.60
2018-02-14T18:05:06.687Z,8.83
2018-02-14T18:07:34.196Z,9.33
2018-02-14T18:10:02.006Z,12.27
2018-02-14T18:12:29.571Z,12.63
2018-02-14T18:14:57.087Z,10.87
2018-02-14T18:17:24.624Z,10.80
2018-02-14T18:19:52.136Z,8.63
2018-02-14T18:22:20.017Z,8.63
2018-02-14T18:24:47.584Z,8.47
2018-02-14T18:27:15.170Z,10.67
2018-02-14T18:29:42.796Z,8.47
2018-02-14T18:32:10.297Z,12.50
2018-02-14T18:34:38.184Z,9.90
2018-02-14T18:37:06.617Z,8.70
2018-02-14T18:39:34.261Z,11.00
2018-02-14T18:42:02.126Z,9.13
2018-02-14T18:44:29.676Z,10.03
2018-02-14T18:46:57.261Z,10.07
2018-02-14T18:49:24.844Z,9.47
2018-02-14T18:51:52.695Z,8.83
2018-02-14T18:54:20.216Z,10.40
2018-02-14T18:56:48.817Z,8.00
2018-02-14T18:59:16.682Z,11.07
2018-02-14T19:01:44.275Z,11.00
2018-02-14T19:04:11.873Z,9.63
2018-02-14T19:06:40.530Z,13.43
2018-02-14T19:09:08.131Z,12.67
2018-02-14T19:11:35.665Z,8.87
2018-02-14T19:14:04.264Z,12.77
2018-02-14T19:16:31.826Z,9.57
2018-02-14T19:18:59.359Z,12.03
2018-02-14T19:21:27.311Z,14.70
2018-02-14T19:23:54.834Z,10.27
2018-02-14T19:26:22.685Z,9.73
2018-02-14T19:28:50.501Z,10.90
2018-02-14T19:31:18.027Z,10.47
2018-02-14T19:33:45.628Z,10.30
2018-02-14T19:36:13.467Z,13.10
2018-02-14T19:38:41.217Z,9.73
2018-02-14T19:41:08.765Z,9.97
2018-02-14T19:43:36.620Z,8.53
2018-02-14T19:46:04.158Z,10.47
2018-02-14T19:48:32.478Z,11.97
2018-02-14T19:51:00.484Z,13.20
2018-02-14T19:53:28.040Z,13.47
2018-02-14T19:55:55.606Z,12.00
2018-02-14T19:58:23.748Z,11.80
2018-02-14T20:00:52.188Z,11.13
2018-02-14T20:03:19.886Z,11.27
2018-02-14T20:05:47.774Z,13.10
2018-02-14T20:08:15.472Z,10.80
2018-02-14T20:10:43.079Z,11.60
2018-02-14T20:13:10.991Z,9.80
2018-02-14T20:15:38.611Z,11.57
2018-02-14T20:18:06.207Z,12.40
2018-02-14T20:20:34.070Z,10.13
2018-02-14T20:23:01.750Z,15.57
2018-02-14T20:25:29.364Z,10.40
2018-02-14T20:27:57.232Z,14.47
2018-02-14T20:30:24.844Z,10.33
2018-02-14T20:32:52.635Z,9.87
2018-02-14T20:35:20.543Z,13.40
2018-02-14T20:37:48.138Z,12.20
2018-02-14T20:40:15.717Z,11.27
2018-02-14T20:42:44.398Z,11.17
2018-02-14T20:45:11.932Z,14.40
2018-02-14T20:47:39.601Z,11.63
2018-02-14T20:50:07.874Z,13.57
2018-02-14T20:52:36.958Z,11.30
2018-02-14T20:55:05.337Z,9.23
2018-02-14T20:57:33.955Z,13.63
2018-02-14T21:00:01.498Z,13.27
2018-02-14T21:02:29.008Z,12.03
2018-02-14T21:04:57.870Z,11.57
2018-02-14T21:07:25.451Z,10.80
2018-02-14T21:09:53.790Z,15.97
2018-02-14T21:12:21.667Z,14.83
2018-02-14T21:14:49.288Z,12.23
2018-02-14T21:17:16.826Z,11.53
2018-02-14T21:19:44.732Z,11.77
2018-02-14T21:22:12.233Z,14.80
2018-02-14T21:24:39.766Z,13.27
2018-02-14T21:27:07.751Z,14.03
2018-02-14T21:29:35.387Z,14.40
2018-02-14T21:32:02.893Z,13.00
2018-02-14T21:34:30.700Z,12.33
2018-02-14T21:36:58.225Z,12.70
2018-02-14T21:39:25.733Z,13.90
2018-02-14T21:41:53.670Z,13.57
2018-02-14T21:44:21.198Z,12.67
2018-02-14T21:46:48.878Z,10.03
2018-02-14T21:49:17.477Z,14.60
2018-02-14T21:51:45.864Z,18.03
2018-02-14T21:54:13.428Z,13.83
2018-02-14T21:56:41.384Z,14.40
2018-02-14T21:59:08.900Z,15.00
2018-02-14T22:01:36.428Z,11.07
2018-02-14T22:04:04.282Z,12.90
2018-02-14T22:06:31.815Z,11.80
2018-02-14T22:09:00.243Z,14.50
2018-02-14T22:11:28.083Z,12.70
2018-02-14T22:13:55.582Z,13.63
2018-02-14T22:16:23.890Z,12.90
2018-02-14T22:18:52.452Z,14.23
2018-02-14T22:21:20.010Z,14.30
2018-02-14T22:23:47.511Z,14.37
2018-02-14T22:26:15.318Z,14.27
2018-02-14T22:28:42.916Z,14.10
2018-02-14T22:31:11.179Z,12.73
2018-02-14T22:33:39.090Z,12.50
2018-02-14T22:36:06.600Z,15.17
2018-02-14T22:38:34.311Z,13.87
2018-02-14T22:41:02.155Z,14.03
2018-02-14T22:43:29.647Z,13.67
2018-02-14T22:45:57.335Z,17.93
2018-02-14T22:48:25.136Z,14.57
2018-02-14T22:50:52.656Z,19.57
2018-02-14T22:53:20.158Z,15.53
2018-02-14T22:55:48.081Z,13.60
2018-02-14T22:58:15.805Z,14.60
2018-02-14T23:00:43.343Z,16.90
2018-02-14T23:03:11.296Z,13.53
2018-02-14T23:05:39.552Z,14.10
2018-02-14T23:08:07.826Z,14.43
2018-02-14T23:10:35.831Z,13.63
2018-02-14T23:13:03.319Z,15.83
2018-02-14T23:15:30.834Z,14.23
2018-02-14T23:17:59.425Z,13.67
2018-02-14T23:20:26.936Z,12.73
2018-02-14T23:22:54.438Z,16.10
2018-02-14T23:25:23.052Z,16.87
2018-02-14T23:27:50.711Z,12.77
2018-02-14T23:30:18.436Z,14.27
2018-02-14T23:32:47.035Z,15.40
2018-02-14T23:35:14.527Z,16.10
2018-02-14T23:37:42.053Z,13.93
2018-02-14T23:40:09.972Z,16.90
2018-02-14T23:42:37.477Z,12.33
2018-02-14T23:45:05.073Z,13.17
2018-02-14T23:47:33.017Z,16.07
2018-02-14T23:50:00.661Z,13.67
2018-02-14T23:52:28.370Z,13.63
2018-02-14T23:54:56.213Z,13.07
2018-02-14T23:57:23.877Z,13.63
2018-02-14T23:59:51.379Z,13.43
